sensor_id;sensor_type;location;lat;lon;timestamp;temperature;humidity
24217;DHT22;12356;49.386;8.688;2022-11-20T00:00:25;7.10;63.10
24217;DHT22;12356;49.386;8.688;2022-11-20T00:02:56;7.10;62.70
24217;DHT22;12356;49.386;8.688;2022-11-20T00:05:26;7.20;62.80
24217;DHT22;12356;49.386;8.688;2022-11-20T00:07:57;7.10;63.00
24217;DHT22;12356;49.386;8.688;2022-11-20T00:10:28;7.00;63.20
24217;DHT22;12356;49.386;8.688;2022-11-20T00:12:59;7.10;63.70
24217;DHT22;12356;49.386;8.688;2022-11-20T00:15:29;7.10;64.20
24217;DHT22;12356;49.386;8.688;2022-11-20T00:18:00;7.10;63.60
24217;DHT22;12356;49.386;8.688;2022-11-20T00:20:32;7.20;63.20
24217;DHT22;12356;49.386;8.688;2022-11-20T00:23:02;7.20;62.90
24217;DHT22;12356;49.386;8.688;2022-11-20T00:25:34;7.20;62.40
24217;DHT22;12356;49.386;8.688;2022-11-20T00:28:05;7.20;61.90
24217;DHT22;12356;49.386;8.688;2022-11-20T00:30:36;7.20;61.90
24217;DHT22;12356;49.386;8.688;2022-11-20T00:33:07;7.10;61.50
24217;DHT22;12356;49.386;8.688;2022-11-20T00:35:37;7.20;61.70
24217;DHT22;12356;49.386;8.688;2022-11-20T00:38:09;7.10;61.80
24217;DHT22;12356;49.386;8.688;2022-11-20T00:40:40;7.10;61.90
24217;DHT22;12356;49.386;8.688;2022-11-20T00:43:10;7.10;61.60
24217;DHT22;12356;49.386;8.688;2022-11-20T00:45:41;7.00;62.20
24217;DHT22;12356;49.386;8.688;2022-11-20T00:48:11;7.10;62.30
24217;DHT22;12356;49.386;8.688;2022-11-20T00:50:42;7.20;61.40
24217;DHT22;12356;49.386;8.688;2022-11-20T00:53:13;7.20;61.20
24217;DHT22;12356;49.386;8.688;2022-11-20T00:55:59;7.20;61.10
24217;DHT22;12356;49.386;8.688;2022-11-20T00:58:34;7.20;60.40
24217;DHT22;12356;49.386;8.688;2022-11-20T01:01:14;7.30;60.00
24217;DHT22;12356;49.386;8.688;2022-11-20T01:03:47;7.20;60.20
24217;DHT22;12356;49.386;8.688;2022-11-20T01:06:23;7.30;60.10
24217;DHT22;12356;49.386;8.688;2022-11-20T01:08:59;7.30;60.70
24217;DHT22;12356;49.386;8.688;2022-11-20T01:11:33;7.20;60.60
24217;DHT22;12356;49.386;8.688;2022-11-20T01:14:07;7.20;60.50
24217;DHT22;12356;49.386;8.688;2022-11-20T01:16:42;7.20;61.20
24217;DHT22;12356;49.386;8.688;2022-11-20T01:19:17;7.20;61.10
24217;DHT22;12356;49.386;8.688;2022-11-20T01:21:51;7.30;61.00
24217;DHT22;12356;49.386;8.688;2022-11-20T01:24:23;7.30;61.20
24217;DHT22;12356;49.386;8.688;2022-11-20T01:26:54;7.30;61.40
24217;DHT22;12356;49.386;8.688;2022-11-20T01:29:25;7.30;61.60
24217;DHT22;12356;49.386;8.688;2022-11-20T01:31:55;7.30;61.60
24217;DHT22;12356;49.386;8.688;2022-11-20T01:34:26;7.30;61.60
24217;DHT22;12356;49.386;8.688;2022-11-20T01:36:57;7.20;61.80
24217;DHT22;12356;49.386;8.688;2022-11-20T01:39:28;7.20;61.70
24217;DHT22;12356;49.386;8.688;2022-11-20T01:41:58;7.20;61.70
24217;DHT22;12356;49.386;8.688;2022-11-20T01:47:40;7.20;60.10
24217;DHT22;12356;49.386;8.688;2022-11-20T01:50:18;7.20;60.10
24217;DHT22;12356;49.386;8.688;2022-11-20T01:53:03;7.20;60.30
24217;DHT22;12356;49.386;8.688;2022-11-20T01:55:45;7.30;60.40
24217;DHT22;12356;49.386;8.688;2022-11-20T01:58:21;7.30;61.20
24217;DHT22;12356;49.386;8.688;2022-11-20T02:00:53;7.30;60.70
24217;DHT22;12356;49.386;8.688;2022-11-20T02:03:23;7.30;60.80
24217;DHT22;12356;49.386;8.688;2022-11-20T02:06:16;7.30;60.80
24217;DHT22;12356;49.386;8.688;2022-11-20T02:08:51;7.30;60.60
24217;DHT22;12356;49.386;8.688;2022-11-20T02:11:22;7.30;60.90
24217;DHT22;12356;49.386;8.688;2022-11-20T02:13:53;7.30;61.20
24217;DHT22;12356;49.386;8.688;2022-11-20T02:16:27;7.30;60.60
24217;DHT22;12356;49.386;8.688;2022-11-20T02:19:00;7.30;60.60
24217;DHT22;12356;49.386;8.688;2022-11-20T02:21:45;7.30;60.50
24217;DHT22;12356;49.386;8.688;2022-11-20T02:24:19;7.30;61.20
24217;DHT22;12356;49.386;8.688;2022-11-20T02:26:59;7.20;61.30
24217;DHT22;12356;49.386;8.688;2022-11-20T02:32:41;7.20;62.20
24217;DHT22;12356;49.386;8.688;2022-11-20T02:37:50;7.20;63.80
24217;DHT22;12356;49.386;8.688;2022-11-20T02:40:22;7.20;64.50
24217;DHT22;12356;49.386;8.688;2022-11-20T02:42:54;7.10;64.90
24217;DHT22;12356;49.386;8.688;2022-11-20T02:45:25;7.20;66.10
24217;DHT22;12356;49.386;8.688;2022-11-20T02:47:56;7.10;66.20
24217;DHT22;12356;49.386;8.688;2022-11-20T02:50:27;7.10;66.10
24217;DHT22;12356;49.386;8.688;2022-11-20T02:52:57;7.10;66.70
24217;DHT22;12356;49.386;8.688;2022-11-20T02:55:28;7.10;66.80
24217;DHT22;12356;49.386;8.688;2022-11-20T02:57:59;7.10;66.90
24217;DHT22;12356;49.386;8.688;2022-11-20T03:00:29;7.20;66.90
24217;DHT22;12356;49.386;8.688;2022-11-20T03:03:00;7.20;66.90
24217;DHT22;12356;49.386;8.688;2022-11-20T03:05:31;7.20;67.20
24217;DHT22;12356;49.386;8.688;2022-11-20T03:08:01;7.30;68.00
24217;DHT22;12356;49.386;8.688;2022-11-20T03:10:32;7.30;68.40
24217;DHT22;12356;49.386;8.688;2022-11-20T03:13:02;7.30;68.10
24217;DHT22;12356;49.386;8.688;2022-11-20T03:15:35;7.30;68.20
24217;DHT22;12356;49.386;8.688;2022-11-20T03:18:05;7.20;68.10
24217;DHT22;12356;49.386;8.688;2022-11-20T03:20:36;7.30;68.20
24217;DHT22;12356;49.386;8.688;2022-11-20T03:23:07;7.30;68.60
24217;DHT22;12356;49.386;8.688;2022-11-20T03:25:37;7.40;69.10
24217;DHT22;12356;49.386;8.688;2022-11-20T03:28:08;7.40;69.10
24217;DHT22;12356;49.386;8.688;2022-11-20T03:30:38;7.40;69.00
24217;DHT22;12356;49.386;8.688;2022-11-20T03:33:10;7.50;69.30
24217;DHT22;12356;49.386;8.688;2022-11-20T03:35:41;7.40;69.20
24217;DHT22;12356;49.386;8.688;2022-11-20T03:38:12;7.30;68.80
24217;DHT22;12356;49.386;8.688;2022-11-20T03:40:42;7.40;69.30
24217;DHT22;12356;49.386;8.688;2022-11-20T03:43:13;7.40;69.70
24217;DHT22;12356;49.386;8.688;2022-11-20T03:45:43;7.40;69.70
24217;DHT22;12356;49.386;8.688;2022-11-20T03:48:14;7.40;70.10
24217;DHT22;12356;49.386;8.688;2022-11-20T03:50:45;7.40;70.00
24217;DHT22;12356;49.386;8.688;2022-11-20T03:53:18;7.30;69.80
24217;DHT22;12356;49.386;8.688;2022-11-20T03:55:51;7.30;70.30
24217;DHT22;12356;49.386;8.688;2022-11-20T03:58:22;7.30;70.20
24217;DHT22;12356;49.386;8.688;2022-11-20T04:00:53;7.40;70.20
24217;DHT22;12356;49.386;8.688;2022-11-20T04:03:24;7.50;70.40
24217;DHT22;12356;49.386;8.688;2022-11-20T04:05:55;7.50;70.00
24217;DHT22;12356;49.386;8.688;2022-11-20T04:08:31;7.40;69.90
24217;DHT22;12356;49.386;8.688;2022-11-20T04:13:41;7.40;70.20
24217;DHT22;12356;49.386;8.688;2022-11-20T04:16:12;7.40;70.30
24217;DHT22;12356;49.386;8.688;2022-11-20T04:18:43;7.50;70.40
24217;DHT22;12356;49.386;8.688;2022-11-20T04:21:14;7.40;70.50
24217;DHT22;12356;49.386;8.688;2022-11-20T04:23:44;7.40;70.70
24217;DHT22;12356;49.386;8.688;2022-11-20T04:26:15;7.40;71.40
24217;DHT22;12356;49.386;8.688;2022-11-20T04:28:46;7.50;71.60
24217;DHT22;12356;49.386;8.688;2022-11-20T04:31:19;7.60;71.30
24217;DHT22;12356;49.386;8.688;2022-11-20T04:33:50;7.60;71.10
24217;DHT22;12356;49.386;8.688;2022-11-20T04:36:26;7.50;71.00
24217;DHT22;12356;49.386;8.688;2022-11-20T04:38:59;7.50;71.40
24217;DHT22;12356;49.386;8.688;2022-11-20T04:41:31;7.60;72.60
24217;DHT22;12356;49.386;8.688;2022-11-20T04:44:04;7.60;71.60
24217;DHT22;12356;49.386;8.688;2022-11-20T04:46:40;7.60;71.40
24217;DHT22;12356;49.386;8.688;2022-11-20T04:49:11;7.60;72.00
24217;DHT22;12356;49.386;8.688;2022-11-20T04:51:42;7.60;72.00
24217;DHT22;12356;49.386;8.688;2022-11-20T04:54:14;7.60;72.90
24217;DHT22;12356;49.386;8.688;2022-11-20T04:56:51;7.60;72.90
24217;DHT22;12356;49.386;8.688;2022-11-20T04:59:21;7.70;73.10
24217;DHT22;12356;49.386;8.688;2022-11-20T05:01:52;7.70;73.00
24217;DHT22;12356;49.386;8.688;2022-11-20T05:04:23;7.70;73.20
24217;DHT22;12356;49.386;8.688;2022-11-20T05:06:53;7.60;72.90
24217;DHT22;12356;49.386;8.688;2022-11-20T05:09:24;7.70;73.10
24217;DHT22;12356;49.386;8.688;2022-11-20T05:11:54;7.70;73.10
24217;DHT22;12356;49.386;8.688;2022-11-20T05:14:25;7.70;73.80
24217;DHT22;12356;49.386;8.688;2022-11-20T05:16:56;7.80;74.00
24217;DHT22;12356;49.386;8.688;2022-11-20T05:19:26;7.90;74.00
24217;DHT22;12356;49.386;8.688;2022-11-20T05:21:57;8.00;73.50
24217;DHT22;12356;49.386;8.688;2022-11-20T05:24:29;8.00;73.70
24217;DHT22;12356;49.386;8.688;2022-11-20T05:26:59;8.00;73.70
24217;DHT22;12356;49.386;8.688;2022-11-20T05:29:31;8.00;73.70
24217;DHT22;12356;49.386;8.688;2022-11-20T05:32:01;7.90;73.40
24217;DHT22;12356;49.386;8.688;2022-11-20T05:34:32;7.90;73.70
24217;DHT22;12356;49.386;8.688;2022-11-20T05:37:03;7.90;73.50
24217;DHT22;12356;49.386;8.688;2022-11-20T05:39:34;7.90;73.70
24217;DHT22;12356;49.386;8.688;2022-11-20T05:42:05;7.90;73.60
24217;DHT22;12356;49.386;8.688;2022-11-20T05:44:54;8.00;73.80
24217;DHT22;12356;49.386;8.688;2022-11-20T05:47:25;7.90;73.90
24217;DHT22;12356;49.386;8.688;2022-11-20T05:49:56;7.90;73.50
24217;DHT22;12356;49.386;8.688;2022-11-20T05:52:30;7.90;73.60
24217;DHT22;12356;49.386;8.688;2022-11-20T05:55:01;8.00;73.80
24217;DHT22;12356;49.386;8.688;2022-11-20T05:57:32;7.90;73.80
24217;DHT22;12356;49.386;8.688;2022-11-20T06:00:03;7.90;74.10
24217;DHT22;12356;49.386;8.688;2022-11-20T06:02:37;7.90;74.10
24217;DHT22;12356;49.386;8.688;2022-11-20T06:05:08;8.00;74.10
24217;DHT22;12356;49.386;8.688;2022-11-20T06:07:38;8.00;74.10
24217;DHT22;12356;49.386;8.688;2022-11-20T06:10:11;7.90;74.20
24217;DHT22;12356;49.386;8.688;2022-11-20T06:12:41;7.90;74.10
24217;DHT22;12356;49.386;8.688;2022-11-20T06:15:13;8.00;75.10
24217;DHT22;12356;49.386;8.688;2022-11-20T06:17:44;8.00;74.70
24217;DHT22;12356;49.386;8.688;2022-11-20T06:20:15;8.00;74.60
24217;DHT22;12356;49.386;8.688;2022-11-20T06:22:45;8.10;75.20
24217;DHT22;12356;49.386;8.688;2022-11-20T06:25:16;8.10;75.10
24217;DHT22;12356;49.386;8.688;2022-11-20T06:27:47;8.10;74.80
24217;DHT22;12356;49.386;8.688;2022-11-20T06:30:18;8.10;74.80
24217;DHT22;12356;49.386;8.688;2022-11-20T06:32:48;8.20;74.60
24217;DHT22;12356;49.386;8.688;2022-11-20T06:35:19;8.10;74.40
24217;DHT22;12356;49.386;8.688;2022-11-20T06:37:49;8.10;74.60
24217;DHT22;12356;49.386;8.688;2022-11-20T06:40:20;8.10;74.20
24217;DHT22;12356;49.386;8.688;2022-11-20T06:42:52;8.10;74.30
24217;DHT22;12356;49.386;8.688;2022-11-20T06:45:23;8.10;74.50
24217;DHT22;12356;49.386;8.688;2022-11-20T06:47:57;8.00;74.20
24217;DHT22;12356;49.386;8.688;2022-11-20T06:50:28;8.00;74.70
24217;DHT22;12356;49.386;8.688;2022-11-20T06:53:02;8.10;74.70
24217;DHT22;12356;49.386;8.688;2022-11-20T06:55:33;8.10;74.40
24217;DHT22;12356;49.386;8.688;2022-11-20T06:58:04;8.10;74.60
24217;DHT22;12356;49.386;8.688;2022-11-20T07:00:35;8.10;74.90
24217;DHT22;12356;49.386;8.688;2022-11-20T07:03:07;8.20;75.20
24217;DHT22;12356;49.386;8.688;2022-11-20T07:05:38;8.10;75.10
24217;DHT22;12356;49.386;8.688;2022-11-20T07:08:10;8.20;75.60
24217;DHT22;12356;49.386;8.688;2022-11-20T07:10:41;8.20;75.60
24217;DHT22;12356;49.386;8.688;2022-11-20T07:13:12;8.20;75.70
24217;DHT22;12356;49.386;8.688;2022-11-20T07:15:43;8.20;76.20
24217;DHT22;12356;49.386;8.688;2022-11-20T07:18:14;8.20;76.00
24217;DHT22;12356;49.386;8.688;2022-11-20T07:20:45;8.30;76.30
24217;DHT22;12356;49.386;8.688;2022-11-20T07:23:15;8.40;76.30
24217;DHT22;12356;49.386;8.688;2022-11-20T07:25:46;8.40;75.90
24217;DHT22;12356;49.386;8.688;2022-11-20T07:28:16;8.40;76.10
24217;DHT22;12356;49.386;8.688;2022-11-20T07:30:51;8.40;76.10
24217;DHT22;12356;49.386;8.688;2022-11-20T07:33:22;8.40;75.90
24217;DHT22;12356;49.386;8.688;2022-11-20T07:35:53;8.40;75.40
24217;DHT22;12356;49.386;8.688;2022-11-20T07:38:24;8.40;75.40
24217;DHT22;12356;49.386;8.688;2022-11-20T07:40:55;8.40;75.40
24217;DHT22;12356;49.386;8.688;2022-11-20T07:43:27;8.40;75.40
24217;DHT22;12356;49.386;8.688;2022-11-20T07:45:58;8.40;75.70
24217;DHT22;12356;49.386;8.688;2022-11-20T07:48:29;8.40;75.40
24217;DHT22;12356;49.386;8.688;2022-11-20T07:51:00;8.40;75.40
24217;DHT22;12356;49.386;8.688;2022-11-20T07:53:30;8.40;75.40
24217;DHT22;12356;49.386;8.688;2022-11-20T07:56:02;8.50;75.50
24217;DHT22;12356;49.386;8.688;2022-11-20T07:58:33;8.40;75.30
24217;DHT22;12356;49.386;8.688;2022-11-20T08:01:06;8.50;75.40
24217;DHT22;12356;49.386;8.688;2022-11-20T08:03:37;8.50;74.90
24217;DHT22;12356;49.386;8.688;2022-11-20T08:06:10;8.50;74.80
24217;DHT22;12356;49.386;8.688;2022-11-20T08:08:41;8.50;75.30
24217;DHT22;12356;49.386;8.688;2022-11-20T08:11:11;8.50;75.40
24217;DHT22;12356;49.386;8.688;2022-11-20T08:14:00;8.50;75.70
24217;DHT22;12356;49.386;8.688;2022-11-20T08:16:47;8.50;75.50
24217;DHT22;12356;49.386;8.688;2022-11-20T08:19:18;8.50;76.10
24217;DHT22;12356;49.386;8.688;2022-11-20T08:21:49;8.60;76.30
24217;DHT22;12356;49.386;8.688;2022-11-20T08:24:19;8.60;76.30
24217;DHT22;12356;49.386;8.688;2022-11-20T08:26:50;8.60;76.30
24217;DHT22;12356;49.386;8.688;2022-11-20T08:29:21;8.60;76.50
24217;DHT22;12356;49.386;8.688;2022-11-20T08:31:51;8.60;76.70
24217;DHT22;12356;49.386;8.688;2022-11-20T08:34:22;8.60;76.90
24217;DHT22;12356;49.386;8.688;2022-11-20T08:36:53;8.70;76.90
24217;DHT22;12356;49.386;8.688;2022-11-20T08:39:25;8.70;76.90
24217;DHT22;12356;49.386;8.688;2022-11-20T08:41:56;8.70;76.60
24217;DHT22;12356;49.386;8.688;2022-11-20T08:44:27;8.80;76.70
24217;DHT22;12356;49.386;8.688;2022-11-20T08:46:58;8.70;76.80
24217;DHT22;12356;49.386;8.688;2022-11-20T08:49:28;8.70;77.00
24217;DHT22;12356;49.386;8.688;2022-11-20T08:51:59;8.80;77.50
24217;DHT22;12356;49.386;8.688;2022-11-20T08:54:29;8.70;77.90
24217;DHT22;12356;49.386;8.688;2022-11-20T08:57:00;8.80;78.40
24217;DHT22;12356;49.386;8.688;2022-11-20T08:59:32;8.80;78.20
24217;DHT22;12356;49.386;8.688;2022-11-20T09:02:02;8.80;78.00
24217;DHT22;12356;49.386;8.688;2022-11-20T09:04:33;8.80;78.00
24217;DHT22;12356;49.386;8.688;2022-11-20T09:07:04;8.80;77.90
24217;DHT22;12356;49.386;8.688;2022-11-20T09:09:34;8.90;77.80
24217;DHT22;12356;49.386;8.688;2022-11-20T09:12:05;8.80;77.90
24217;DHT22;12356;49.386;8.688;2022-11-20T09:14:36;8.80;78.00
24217;DHT22;12356;49.386;8.688;2022-11-20T09:17:06;8.90;78.00
24217;DHT22;12356;49.386;8.688;2022-11-20T09:19:37;8.90;78.40
24217;DHT22;12356;49.386;8.688;2022-11-20T09:22:09;8.90;78.40
24217;DHT22;12356;49.386;8.688;2022-11-20T09:24:41;8.90;78.10
24217;DHT22;12356;49.386;8.688;2022-11-20T09:27:13;8.90;77.80
24217;DHT22;12356;49.386;8.688;2022-11-20T09:29:43;8.90;77.90
24217;DHT22;12356;49.386;8.688;2022-11-20T09:32:14;9.00;77.80
24217;DHT22;12356;49.386;8.688;2022-11-20T09:34:44;8.90;78.10
24217;DHT22;12356;49.386;8.688;2022-11-20T09:37:15;9.00;77.80
24217;DHT22;12356;49.386;8.688;2022-11-20T09:39:46;9.00;77.70
24217;DHT22;12356;49.386;8.688;2022-11-20T09:48:02;9.00;78.00
24217;DHT22;12356;49.386;8.688;2022-11-20T09:50:45;9.00;78.20
24217;DHT22;12356;49.386;8.688;2022-11-20T09:54:18;9.00;78.00
24217;DHT22;12356;49.386;8.688;2022-11-20T09:56:24;9.10;78.50
24217;DHT22;12356;49.386;8.688;2022-11-20T09:58:59;9.00;78.10
24217;DHT22;12356;49.386;8.688;2022-11-20T10:01:35;9.10;78.30
24217;DHT22;12356;49.386;8.688;2022-11-20T10:04:17;9.10;78.30
24217;DHT22;12356;49.386;8.688;2022-11-20T10:07:21;9.10;78.20
24217;DHT22;12356;49.386;8.688;2022-11-20T10:09:55;9.00;78.40
24217;DHT22;12356;49.386;8.688;2022-11-20T10:22:03;9.20;77.90
24217;DHT22;12356;49.386;8.688;2022-11-20T10:24:57;9.20;77.80
24217;DHT22;12356;49.386;8.688;2022-11-20T10:30:23;9.20;78.00
24217;DHT22;12356;49.386;8.688;2022-11-20T10:33:08;9.20;77.90
24217;DHT22;12356;49.386;8.688;2022-11-20T10:35:49;9.20;78.10
24217;DHT22;12356;49.386;8.688;2022-11-20T10:38:23;9.20;78.10
24217;DHT22;12356;49.386;8.688;2022-11-20T10:41:00;9.20;78.20
24217;DHT22;12356;49.386;8.688;2022-11-20T10:44:02;9.30;78.80
24217;DHT22;12356;49.386;8.688;2022-11-20T10:46:44;9.30;78.70
24217;DHT22;12356;49.386;8.688;2022-11-20T10:49:18;9.30;77.90
24217;DHT22;12356;49.386;8.688;2022-11-20T10:52:12;9.40;77.80
24217;DHT22;12356;49.386;8.688;2022-11-20T10:57:54;9.30;78.20
24217;DHT22;12356;49.386;8.688;2022-11-20T11:00:26;9.40;78.50
24217;DHT22;12356;49.386;8.688;2022-11-20T11:02:57;9.40;78.40
24217;DHT22;12356;49.386;8.688;2022-11-20T11:05:40;9.50;78.50
24217;DHT22;12356;49.386;8.688;2022-11-20T11:08:17;9.50;78.20
24217;DHT22;12356;49.386;8.688;2022-11-20T11:11:07;9.50;78.10
24217;DHT22;12356;49.386;8.688;2022-11-20T11:13:43;9.50;78.90
24217;DHT22;12356;49.386;8.688;2022-11-20T11:16:26;9.50;78.60
24217;DHT22;12356;49.386;8.688;2022-11-20T11:19:16;9.50;78.40
24217;DHT22;12356;49.386;8.688;2022-11-20T11:21:54;9.50;78.50
24217;DHT22;12356;49.386;8.688;2022-11-20T11:24:27;9.50;78.80
24217;DHT22;12356;49.386;8.688;2022-11-20T11:26:58;9.50;78.90
24217;DHT22;12356;49.386;8.688;2022-11-20T11:29:29;9.60;79.30
24217;DHT22;12356;49.386;8.688;2022-11-20T11:32:19;9.70;80.40
24217;DHT22;12356;49.386;8.688;2022-11-20T11:35:04;9.80;81.10
24217;DHT22;12356;49.386;8.688;2022-11-20T11:37:39;9.90;81.40
24217;DHT22;12356;49.386;8.688;2022-11-20T11:40:11;10.00;80.40
24217;DHT22;12356;49.386;8.688;2022-11-20T11:42:43;10.00;80.90
24217;DHT22;12356;49.386;8.688;2022-11-20T11:45:15;10.10;79.60
24217;DHT22;12356;49.386;8.688;2022-11-20T11:47:48;10.10;79.40
24217;DHT22;12356;49.386;8.688;2022-11-20T11:50:22;10.10;74.80
24217;DHT22;12356;49.386;8.688;2022-11-20T11:53:12;10.10;73.60
24217;DHT22;12356;49.386;8.688;2022-11-20T12:04:20;10.00;71.80
24217;DHT22;12356;49.386;8.688;2022-11-20T12:06:58;10.00;73.00
24217;DHT22;12356;49.386;8.688;2022-11-20T12:09:43;10.10;74.90
24217;DHT22;12356;49.386;8.688;2022-11-20T12:12:31;10.10;73.10
24217;DHT22;12356;49.386;8.688;2022-11-20T12:15:11;10.10;72.60
24217;DHT22;12356;49.386;8.688;2022-11-20T12:17:42;10.20;71.00
24217;DHT22;12356;49.386;8.688;2022-11-20T12:20:17;10.20;69.80
24217;DHT22;12356;49.386;8.688;2022-11-20T12:23:14;10.10;69.00
24217;DHT22;12356;49.386;8.688;2022-11-20T12:25:53;10.10;69.60
24217;DHT22;12356;49.386;8.688;2022-11-20T12:29:13;10.10;70.40
24217;DHT22;12356;49.386;8.688;2022-11-20T12:41:00;10.20;70.70
24217;DHT22;12356;49.386;8.688;2022-11-20T12:49:20;10.10;74.20
24217;DHT22;12356;49.386;8.688;2022-11-20T12:55:08;10.20;71.80
24217;DHT22;12356;49.386;8.688;2022-11-20T12:57:44;10.10;66.10
24217;DHT22;12356;49.386;8.688;2022-11-20T13:00:23;10.10;62.00
24217;DHT22;12356;49.386;8.688;2022-11-20T13:08:28;10.00;61.70
24217;DHT22;12356;49.386;8.688;2022-11-20T13:16:52;10.00;58.50
24217;DHT22;12356;49.386;8.688;2022-11-20T13:19:26;9.90;60.10
24217;DHT22;12356;49.386;8.688;2022-11-20T13:21:58;10.00;60.30
24217;DHT22;12356;49.386;8.688;2022-11-20T13:24:32;10.00;57.20
24217;DHT22;12356;49.386;8.688;2022-11-20T13:29:45;10.00;52.50
24217;DHT22;12356;49.386;8.688;2022-11-20T13:32:21;10.00;51.90
24217;DHT22;12356;49.386;8.688;2022-11-20T13:34:56;10.10;54.60
24217;DHT22;12356;49.386;8.688;2022-11-20T13:37:36;10.10;56.00
24217;DHT22;12356;49.386;8.688;2022-11-20T13:42:45;10.10;52.50
24217;DHT22;12356;49.386;8.688;2022-11-20T13:45:27;10.20;54.20
24217;DHT22;12356;49.386;8.688;2022-11-20T13:48:03;10.20;56.00
24217;DHT22;12356;49.386;8.688;2022-11-20T13:53:26;10.30;51.40
24217;DHT22;12356;49.386;8.688;2022-11-20T13:56:08;10.30;51.40
24217;DHT22;12356;49.386;8.688;2022-11-20T13:59:11;10.30;46.70
24217;DHT22;12356;49.386;8.688;2022-11-20T14:01:38;10.30;47.70
24217;DHT22;12356;49.386;8.688;2022-11-20T14:04:18;10.40;46.70
24217;DHT22;12356;49.386;8.688;2022-11-20T14:06:50;10.40;41.10
24217;DHT22;12356;49.386;8.688;2022-11-20T14:09:32;10.30;36.60
24217;DHT22;12356;49.386;8.688;2022-11-20T14:12:15;10.30;36.50
24217;DHT22;12356;49.386;8.688;2022-11-20T14:14:54;10.30;41.30
24217;DHT22;12356;49.386;8.688;2022-11-20T14:17:35;10.20;44.90
24217;DHT22;12356;49.386;8.688;2022-11-20T14:20:13;10.20;44.80
24217;DHT22;12356;49.386;8.688;2022-11-20T14:22:52;10.20;41.30
24217;DHT22;12356;49.386;8.688;2022-11-20T14:25:25;10.10;42.10
24217;DHT22;12356;49.386;8.688;2022-11-20T14:28:00;10.10;43.80
24217;DHT22;12356;49.386;8.688;2022-11-20T14:30:44;10.10;44.70
24217;DHT22;12356;49.386;8.688;2022-11-20T14:33:15;10.10;42.40
24217;DHT22;12356;49.386;8.688;2022-11-20T14:35:48;10.00;39.50
24217;DHT22;12356;49.386;8.688;2022-11-20T14:38:31;9.90;40.30
24217;DHT22;12356;49.386;8.688;2022-11-20T14:41:07;10.00;42.00
24217;DHT22;12356;49.386;8.688;2022-11-20T14:43:39;9.90;42.30
24217;DHT22;12356;49.386;8.688;2022-11-20T14:46:15;9.90;39.80
24217;DHT22;12356;49.386;8.688;2022-11-20T14:48:50;9.80;38.80
24217;DHT22;12356;49.386;8.688;2022-11-20T14:51:35;9.80;40.20
24217;DHT22;12356;49.386;8.688;2022-11-20T14:54:19;9.70;43.30
24217;DHT22;12356;49.386;8.688;2022-11-20T14:57:03;9.70;45.90
24217;DHT22;12356;49.386;8.688;2022-11-20T14:59:42;9.70;47.80
24217;DHT22;12356;49.386;8.688;2022-11-20T15:02:13;9.60;46.10
24217;DHT22;12356;49.386;8.688;2022-11-20T15:04:56;9.50;48.30
24217;DHT22;12356;49.386;8.688;2022-11-20T15:07:38;9.40;48.60
24217;DHT22;12356;49.386;8.688;2022-11-20T15:10:22;9.40;48.90
24217;DHT22;12356;49.386;8.688;2022-11-20T15:12:55;9.40;49.30
24217;DHT22;12356;49.386;8.688;2022-11-20T15:18:02;9.40;51.10
24217;DHT22;12356;49.386;8.688;2022-11-20T15:20:35;9.40;51.70
24217;DHT22;12356;49.386;8.688;2022-11-20T15:23:13;9.40;52.20
24217;DHT22;12356;49.386;8.688;2022-11-20T15:25:45;9.40;53.00
24217;DHT22;12356;49.386;8.688;2022-11-20T15:28:33;9.30;53.00
24217;DHT22;12356;49.386;8.688;2022-11-20T15:31:04;9.40;53.90
24217;DHT22;12356;49.386;8.688;2022-11-20T15:33:35;9.30;54.10
24217;DHT22;12356;49.386;8.688;2022-11-20T15:36:08;9.30;54.30
24217;DHT22;12356;49.386;8.688;2022-11-20T15:38:38;9.20;53.70
24217;DHT22;12356;49.386;8.688;2022-11-20T15:41:09;9.20;54.70
24217;DHT22;12356;49.386;8.688;2022-11-20T15:43:40;9.00;55.00
24217;DHT22;12356;49.386;8.688;2022-11-20T15:46:15;9.00;55.40
24217;DHT22;12356;49.386;8.688;2022-11-20T15:48:51;9.00;55.00
24217;DHT22;12356;49.386;8.688;2022-11-20T15:51:35;9.00;55.20
24217;DHT22;12356;49.386;8.688;2022-11-20T15:54:24;9.00;55.50
24217;DHT22;12356;49.386;8.688;2022-11-20T15:56:55;9.00;55.10
24217;DHT22;12356;49.386;8.688;2022-11-20T15:59:25;9.00;54.50
24217;DHT22;12356;49.386;8.688;2022-11-20T16:01:56;9.00;53.80
24217;DHT22;12356;49.386;8.688;2022-11-20T16:04:27;9.00;53.50
24217;DHT22;12356;49.386;8.688;2022-11-20T16:06:57;9.00;53.80
24217;DHT22;12356;49.386;8.688;2022-11-20T16:09:28;9.00;54.00
24217;DHT22;12356;49.386;8.688;2022-11-20T16:11:59;9.00;54.10
24217;DHT22;12356;49.386;8.688;2022-11-20T16:14:30;9.00;53.00
24217;DHT22;12356;49.386;8.688;2022-11-20T16:17:19;8.90;53.30
24217;DHT22;12356;49.386;8.688;2022-11-20T16:20:11;8.90;53.40
24217;DHT22;12356;49.386;8.688;2022-11-20T16:22:41;8.90;53.80
24217;DHT22;12356;49.386;8.688;2022-11-20T16:25:12;9.00;54.20
24217;DHT22;12356;49.386;8.688;2022-11-20T16:27:43;9.00;54.40
24217;DHT22;12356;49.386;8.688;2022-11-20T16:30:15;9.00;53.90
24217;DHT22;12356;49.386;8.688;2022-11-20T16:32:45;9.00;53.80
24217;DHT22;12356;49.386;8.688;2022-11-20T16:35:16;9.00;54.40
24217;DHT22;12356;49.386;8.688;2022-11-20T16:37:47;9.00;53.50
24217;DHT22;12356;49.386;8.688;2022-11-20T16:40:17;9.10;53.50
24217;DHT22;12356;49.386;8.688;2022-11-20T16:42:48;9.10;52.10
24217;DHT22;12356;49.386;8.688;2022-11-20T16:45:19;9.10;50.40
24217;DHT22;12356;49.386;8.688;2022-11-20T16:47:51;9.00;49.90
24217;DHT22;12356;49.386;8.688;2022-11-20T16:50:22;9.10;51.40
24217;DHT22;12356;49.386;8.688;2022-11-20T16:52:52;9.10;51.30
24217;DHT22;12356;49.386;8.688;2022-11-20T16:55:23;9.10;50.80
24217;DHT22;12356;49.386;8.688;2022-11-20T16:57:53;9.00;50.70
24217;DHT22;12356;49.386;8.688;2022-11-20T17:00:24;9.10;51.10
24217;DHT22;12356;49.386;8.688;2022-11-20T17:02:55;9.00;50.50
24217;DHT22;12356;49.386;8.688;2022-11-20T17:05:28;9.10;51.80
24217;DHT22;12356;49.386;8.688;2022-11-20T17:07:59;9.00;52.60
24217;DHT22;12356;49.386;8.688;2022-11-20T17:10:29;9.00;54.70
24217;DHT22;12356;49.386;8.688;2022-11-20T17:13:00;9.10;54.70
24217;DHT22;12356;49.386;8.688;2022-11-20T17:15:31;9.00;54.80
24217;DHT22;12356;49.386;8.688;2022-11-20T17:18:01;9.00;55.40
24217;DHT22;12356;49.386;8.688;2022-11-20T17:20:32;9.10;54.50
24217;DHT22;12356;49.386;8.688;2022-11-20T17:23:03;9.10;52.40
24217;DHT22;12356;49.386;8.688;2022-11-20T17:25:35;9.10;52.20
24217;DHT22;12356;49.386;8.688;2022-11-20T17:28:06;9.10;51.90
24217;DHT22;12356;49.386;8.688;2022-11-20T17:30:36;9.10;53.80
24217;DHT22;12356;49.386;8.688;2022-11-20T17:33:07;9.10;54.70
24217;DHT22;12356;49.386;8.688;2022-11-20T17:35:37;9.00;56.80
24217;DHT22;12356;49.386;8.688;2022-11-20T17:38:08;9.00;58.70
24217;DHT22;12356;49.386;8.688;2022-11-20T17:40:39;9.00;59.60
24217;DHT22;12356;49.386;8.688;2022-11-20T17:43:09;8.90;59.60
24217;DHT22;12356;49.386;8.688;2022-11-20T17:45:40;8.80;59.40
24217;DHT22;12356;49.386;8.688;2022-11-20T17:48:12;8.90;59.50